createdAt,value
2018-01-19T00:01:02.936Z,0
2018-01-19T00:02:12.987Z,0
2018-01-19T00:03:22.775Z,0
2018-01-19T00:04:32.838Z,0
2018-01-19T00:05:42.900Z,0
2018-01-19T00:06:52.948Z,0
2018-01-19T00:08:02.999Z,0
2018-01-19T00:09:12.805Z,0
2018-01-19T00:10:22.865Z,0
2018-01-19T00:11:32.654Z,0
2018-01-19T00:12:42.707Z,0
2018-01-19T00:13:52.480Z,0
2018-01-19T00:15:02.564Z,0
2018-01-19T00:16:12.686Z,0
2018-01-19T00:17:23.793Z,0
2018-01-19T00:18:33.585Z,0
2018-01-19T00:19:43.363Z,0
2018-01-19T00:20:53.432Z,0
2018-01-19T00:22:03.485Z,0
2018-01-19T00:23:13.530Z,0
2018-01-19T00:24:23.924Z,0
2018-01-19T00:25:33.973Z,0
2018-01-19T00:26:44.033Z,0
2018-01-19T00:27:54.082Z,0
2018-01-19T00:29:04.277Z,0
2018-01-19T00:30:14.326Z,0
2018-01-19T00:31:24.168Z,0
2018-01-19T00:32:33.952Z,0
2018-01-19T00:33:43.988Z,0
2018-01-19T00:34:54.643Z,0
2018-01-19T00:36:04.291Z,0
2018-01-19T00:37:14.338Z,0
2018-01-19T00:38:24.434Z,0
2018-01-19T00:39:34.220Z,0
2018-01-19T00:40:44.257Z,0
2018-01-19T00:41:54.295Z,0
2018-01-19T00:43:04.359Z,0
2018-01-19T00:44:14.400Z,0
2018-01-19T00:45:23.920Z,0
2018-01-19T00:46:33.967Z,0
2018-01-19T00:47:43.760Z,0
2018-01-19T00:48:53.810Z,0
2018-01-19T00:50:03.877Z,0
2018-01-19T00:51:13.654Z,0
2018-01-19T00:52:23.450Z,0
2018-01-19T00:53:33.503Z,0
2018-01-19T00:54:43.552Z,0
2018-01-19T00:55:53.391Z,0
2018-01-19T00:57:03.184Z,0
2018-01-19T00:58:13.231Z,0
2018-01-19T00:59:23.281Z,0
2018-01-19T01:00:33.333Z,0
2018-01-19T01:01:43.170Z,0
2018-01-19T01:02:53.213Z,0
2018-01-19T01:04:03.271Z,0
2018-01-19T01:05:13.062Z,0
2018-01-19T01:06:22.582Z,0
2018-01-19T01:07:32.413Z,0
2018-01-19T01:08:42.461Z,0
2018-01-19T01:09:52.273Z,0
2018-01-19T01:11:02.093Z,0
2018-01-19T01:12:12.146Z,0
2018-01-19T01:13:22.262Z,0
2018-01-19T01:14:32.303Z,0
2018-01-19T01:15:42.368Z,0
2018-01-19T01:16:52.195Z,0
2018-01-19T01:18:01.740Z,0
2018-01-19T01:19:11.575Z,0
2018-01-19T01:20:21.367Z,0
2018-01-19T01:21:31.425Z,0
2018-01-19T01:22:41.492Z,0
2018-01-19T01:23:51.532Z,0
2018-01-19T01:25:01.625Z,0
2018-01-19T01:26:11.408Z,0
2018-01-19T01:27:21.455Z,0
2018-01-19T01:28:31.501Z,0
2018-01-19T01:29:41.581Z,0
2018-01-19T01:30:51.609Z,0
2018-01-19T01:32:00.881Z,0
2018-01-19T01:33:10.668Z,0
2018-01-19T01:34:20.453Z,0
2018-01-19T01:35:30.305Z,0
2018-01-19T01:36:40.346Z,0
2018-01-19T01:37:50.400Z,0
2018-01-19T01:39:00.446Z,0
2018-01-19T01:40:10.235Z,0
2018-01-19T01:41:20.023Z,0
2018-01-19T01:42:29.815Z,0
2018-01-19T01:43:39.860Z,0
2018-01-19T01:44:49.926Z,0
2018-01-19T01:45:59.706Z,0
2018-01-19T01:47:09.486Z,0
2018-01-19T01:48:19.541Z,0
2018-01-19T01:49:29.611Z,0
2018-01-19T01:50:39.813Z,0
2018-01-19T01:51:49.639Z,0
2018-01-19T01:52:59.480Z,0
2018-01-19T01:54:09.536Z,0
2018-01-19T01:55:19.587Z,0
2018-01-19T01:56:29.636Z,0
2018-01-19T01:57:39.672Z,0
2018-01-19T01:58:49.709Z,0
2018-01-19T01:59:59.489Z,0
2018-01-19T02:01:09.284Z,0
2018-01-19T02:02:20.336Z,0
2018-01-19T02:03:30.380Z,0
2018-01-19T02:04:40.428Z,0
2018-01-19T02:05:50.361Z,0
2018-01-19T02:07:00.149Z,0
2018-01-19T02:08:10.201Z,0
2018-01-19T02:09:20.234Z,0
2018-01-19T02:10:30.270Z,0
2018-01-19T02:11:40.317Z,0
2018-01-19T02:12:50.361Z,0
2018-01-19T02:14:00.411Z,0
2018-01-19T02:15:10.460Z,0
2018-01-19T02:16:20.507Z,0
2018-01-19T02:17:30.715Z,0
2018-01-19T02:18:40.745Z,0
2018-01-19T02:19:50.540Z,0
2018-01-19T02:21:00.596Z,0
2018-01-19T02:22:10.382Z,0
2018-01-19T02:23:20.229Z,0
2018-01-19T02:24:30.275Z,0
2018-01-19T02:25:40.071Z,0
2018-01-19T02:26:50.124Z,0
2018-01-19T02:28:00.211Z,0
2018-01-19T02:29:10.247Z,0
2018-01-19T02:30:20.299Z,0
2018-01-19T02:31:30.351Z,0
2018-01-19T02:32:40.405Z,0
2018-01-19T02:33:50.439Z,0
2018-01-19T02:35:00.245Z,0
2018-01-19T02:36:10.309Z,0
2018-01-19T02:37:20.083Z,0
2018-01-19T02:38:29.336Z,0
2018-01-19T02:39:39.398Z,0
2018-01-19T02:40:49.189Z,0
2018-01-19T02:41:58.986Z,0
2018-01-19T02:43:09.043Z,0
2018-01-19T02:44:18.821Z,0
2018-01-19T02:45:28.867Z,0
2018-01-19T02:46:38.670Z,0
2018-01-19T02:47:48.210Z,0
2018-01-19T02:48:58.271Z,0
2018-01-19T02:50:08.313Z,0
2018-01-19T02:51:18.366Z,0
2018-01-19T02:52:28.456Z,0
2018-01-19T02:53:38.253Z,0
2018-01-19T02:54:48.040Z,0
2018-01-19T02:55:57.837Z,0
2018-01-19T02:57:07.874Z,0
2018-01-19T02:58:17.980Z,0
2018-01-19T02:59:27.757Z,0
2018-01-19T03:00:37.325Z,0
2018-01-19T03:01:47.391Z,0
2018-01-19T03:02:57.453Z,0
2018-01-19T03:34:18.585Z,0
2018-01-19T03:35:28.626Z,0
2018-01-19T03:36:38.437Z,0
2018-01-19T03:37:48.475Z,0
2018-01-19T03:38:58.249Z,0
2018-01-19T03:40:08.342Z,0
2018-01-19T03:41:18.411Z,0
2018-01-19T03:42:28.446Z,0
2018-01-19T03:43:38.478Z,0
2018-01-19T03:44:48.520Z,0
2018-01-19T03:45:58.627Z,0
2018-01-19T03:47:08.680Z,0
2018-01-19T03:48:18.726Z,0
2018-01-19T03:49:28.773Z,0
2018-01-19T03:50:38.577Z,0
2018-01-19T03:51:48.681Z,0
2018-01-19T03:52:58.709Z,0
2018-01-19T03:54:08.765Z,0
2018-01-19T03:55:18.547Z,0
2018-01-19T03:56:28.604Z,0
2018-01-19T03:57:38.696Z,0
2018-01-19T03:58:48.736Z,0
2018-01-19T03:59:58.264Z,0
2018-01-19T04:01:08.309Z,0
2018-01-19T04:02:18.357Z,0
2018-01-19T04:03:28.194Z,0
2018-01-19T04:04:37.710Z,0
2018-01-19T04:05:47.757Z,0
2018-01-19T04:06:57.539Z,0
2018-01-19T04:08:07.334Z,0
2018-01-19T04:09:17.381Z,0
2018-01-19T04:10:28.066Z,0
2018-01-19T04:11:38.137Z,0
2018-01-19T04:12:47.919Z,0
2018-01-19T04:13:57.971Z,0
2018-01-19T04:15:07.813Z,0
2018-01-19T04:16:17.592Z,0
2018-01-19T04:17:27.624Z,0
2018-01-19T04:18:37.665Z,0
2018-01-19T04:19:47.707Z,0
2018-01-19T04:20:57.746Z,0
2018-01-19T04:22:07.800Z,0
2018-01-19T04:23:17.603Z,0
2018-01-19T04:24:27.413Z,0
2018-01-19T04:25:37.486Z,0
2018-01-19T04:26:47.588Z,0
2018-01-19T04:27:57.640Z,0
2018-01-19T04:29:07.683Z,0
2018-01-19T04:30:17.472Z,0
2018-01-19T04:31:27.508Z,0
2018-01-19T04:32:37.389Z,0
2018-01-19T04:33:47.444Z,0
2018-01-19T04:34:57.499Z,0
2018-01-19T04:36:07.293Z,0
2018-01-19T04:37:17.323Z,0
2018-01-19T04:38:26.857Z,0
2018-01-19T04:39:36.903Z,0
2018-01-19T04:40:46.959Z,0
2018-01-19T04:41:57.008Z,0
2018-01-19T04:43:07.054Z,0
2018-01-19T04:44:17.154Z,0
2018-01-19T04:45:27.206Z,0
2018-01-19T04:46:37.271Z,0
2018-01-19T04:47:47.374Z,0
2018-01-19T04:48:57.421Z,0
2018-01-19T04:50:07.508Z,0
2018-01-19T04:51:17.296Z,0
2018-01-19T04:52:28.452Z,0
2018-01-19T04:53:38.549Z,0
2018-01-19T04:54:48.574Z,0
2018-01-19T04:55:58.677Z,0
2018-01-19T04:57:08.718Z,0
2018-01-19T04:58:18.246Z,0
2018-01-19T04:59:28.279Z,0
2018-01-19T05:00:38.335Z,0
2018-01-19T05:01:48.378Z,0
2018-01-19T05:02:58.434Z,0
2018-01-19T05:04:08.474Z,0
2018-01-19T05:05:18.532Z,0
2018-01-19T05:06:28.582Z,0
2018-01-19T05:07:38.688Z,0
2018-01-19T05:08:48.472Z,0
2018-01-19T05:09:58.519Z,0
2018-01-19T05:11:08.355Z,0
2018-01-19T05:12:18.402Z,0
2018-01-19T05:13:28.454Z,0
2018-01-19T05:14:38.520Z,0
2018-01-19T05:15:48.567Z,0
2018-01-19T05:16:58.095Z,0
2018-01-19T05:18:07.871Z,0
2018-01-19T05:19:17.922Z,0
2018-01-19T05:20:27.704Z,0
2018-01-19T05:21:37.506Z,0
2018-01-19T05:22:47.562Z,0
2018-01-19T05:23:57.616Z,0
2018-01-19T05:25:07.724Z,0
2018-01-19T05:26:17.764Z,0
2018-01-19T05:27:27.829Z,0
2018-01-19T05:28:37.617Z,0
2018-01-19T05:29:47.713Z,0
2018-01-19T05:30:57.792Z,0
2018-01-19T05:32:07.831Z,0
2018-01-19T05:33:17.873Z,0
2018-01-19T05:34:27.662Z,0
2018-01-19T05:35:37.437Z,0
2018-01-19T05:36:47.487Z,0
2018-01-19T05:37:57.535Z,0
2018-01-19T05:39:07.571Z,0
2018-01-19T05:40:17.618Z,0
2018-01-19T05:41:27.675Z,0
2018-01-19T05:42:37.768Z,0
2018-01-19T05:43:47.815Z,0
2018-01-19T05:44:57.857Z,0
2018-01-19T05:46:07.927Z,0
2018-01-19T05:47:17.977Z,0
2018-01-19T05:48:27.769Z,0
2018-01-19T05:49:37.816Z,0
2018-01-19T05:50:47.877Z,0
2018-01-19T05:51:57.926Z,0
2018-01-19T05:53:07.980Z,0
2018-01-19T05:54:18.047Z,0
2018-01-19T05:55:28.084Z,0
2018-01-19T05:56:38.130Z,0
2018-01-19T05:57:47.933Z,0
2018-01-19T05:58:57.785Z,0
2018-01-19T06:00:07.839Z,0
2018-01-19T06:01:17.887Z,0
2018-01-19T06:02:27.973Z,0
2018-01-19T06:03:38.010Z,0
2018-01-19T06:04:48.068Z,0
2018-01-19T06:05:58.177Z,0
2018-01-19T06:07:08.240Z,0
2018-01-19T06:08:18.018Z,0
2018-01-19T06:09:28.075Z,0
2018-01-19T06:10:38.144Z,0
2018-01-19T06:11:48.211Z,0
2018-01-19T06:12:58.257Z,0
2018-01-19T06:14:08.304Z,0
2018-01-19T06:15:18.351Z,0
2018-01-19T06:16:28.637Z,0
2018-01-19T06:17:38.687Z,0
2018-01-19T06:18:48.722Z,0
2018-01-19T06:19:58.768Z,0
2018-01-19T06:21:08.830Z,0
2018-01-19T06:22:18.934Z,0
2018-01-19T06:23:28.764Z,0
2018-01-19T06:24:38.553Z,0
2018-01-19T06:25:48.336Z,0
2018-01-19T06:26:58.400Z,0
2018-01-19T06:28:08.461Z,0
2018-01-19T06:29:18.517Z,0
2018-01-19T06:30:28.557Z,0
2018-01-19T06:31:38.592Z,0
2018-01-19T06:32:48.633Z,0
2018-01-19T06:33:58.680Z,0
2018-01-19T06:35:08.787Z,0
2018-01-19T06:36:18.844Z,0
2018-01-19T06:37:28.886Z,0
2018-01-19T06:38:38.660Z,0
2018-01-19T06:39:48.453Z,0
2018-01-19T06:40:58.557Z,0
2018-01-19T06:42:08.612Z,0
2018-01-19T06:43:18.386Z,0
2018-01-19T06:44:28.436Z,0
2018-01-19T06:45:38.214Z,0
2018-01-19T06:46:48.265Z,0
2018-01-19T06:47:58.038Z,0
2018-01-19T06:49:08.081Z,0
2018-01-19T06:50:17.639Z,0
2018-01-19T06:51:27.443Z,0
2018-01-19T06:52:37.493Z,0
2018-01-19T06:53:47.281Z,0
2018-01-19T06:54:57.326Z,0
2018-01-19T06:56:07.115Z,0
2018-01-19T06:57:17.179Z,0
2018-01-19T06:58:27.231Z,0
2018-01-19T06:59:37.268Z,0
2018-01-19T07:00:47.065Z,0
2018-01-19T07:01:56.982Z,0
2018-01-19T07:03:07.030Z,0
2018-01-19T07:04:17.080Z,0
2018-01-19T07:05:27.122Z,0
2018-01-19T07:06:37.160Z,0
2018-01-19T07:07:47.212Z,0
2018-01-19T07:08:57.010Z,5
2018-01-19T07:10:06.847Z,5
2018-01-19T07:11:16.886Z,5
2018-01-19T07:12:26.682Z,5
2018-01-19T07:13:36.715Z,5
2018-01-19T07:14:46.774Z,5
2018-01-19T07:15:57.023Z,5
2018-01-19T07:17:07.066Z,5
2018-01-19T07:18:17.116Z,5
2018-01-19T07:19:26.929Z,5
2018-01-19T07:20:36.725Z,5
2018-01-19T07:21:46.576Z,5
2018-01-19T07:22:56.628Z,5
2018-01-19T07:24:06.690Z,5
2018-01-19T07:25:16.727Z,5
2018-01-19T07:26:26.504Z,5
2018-01-19T07:27:36.545Z,10
2018-01-19T07:28:46.073Z,10
2018-01-19T07:29:55.605Z,10
2018-01-19T07:31:05.650Z,10
2018-01-19T07:32:15.747Z,10
2018-01-19T07:33:25.794Z,10
2018-01-19T07:34:35.682Z,10
2018-01-19T07:35:45.745Z,10
2018-01-19T07:36:55.776Z,10
2018-01-19T07:38:05.566Z,10
2018-01-19T07:39:15.359Z,10
2018-01-19T07:40:25.414Z,10
2018-01-19T07:41:35.473Z,10
2018-01-19T07:42:45.525Z,10
2018-01-19T07:43:55.560Z,10
2018-01-19T07:45:05.612Z,10
2018-01-19T07:46:15.410Z,10
2018-01-19T07:47:24.956Z,10
2018-01-19T07:48:34.747Z,10
2018-01-19T07:49:44.797Z,10
2018-01-19T07:50:54.837Z,10
2018-01-19T07:52:04.933Z,10
2018-01-19T07:53:14.704Z,10
2018-01-19T07:54:24.491Z,10
2018-01-19T07:55:34.534Z,10
2018-01-19T07:56:44.571Z,10
2018-01-19T07:57:54.616Z,10
2018-01-19T07:59:04.419Z,10
2018-01-19T08:00:14.196Z,10
2018-01-19T08:01:24.253Z,10
2018-01-19T08:02:34.296Z,10
2018-01-19T08:03:44.372Z,10
2018-01-19T08:04:54.409Z,10
2018-01-19T08:06:04.449Z,10
2018-01-19T08:07:14.498Z,10
2018-01-19T08:08:24.547Z,15
2018-01-19T08:09:34.403Z,15
2018-01-19T08:10:44.477Z,10
2018-01-19T08:11:53.994Z,10
2018-01-19T08:13:04.045Z,10
2018-01-19T08:14:14.105Z,10
2018-01-19T08:15:24.200Z,10
2018-01-19T08:16:34.243Z,10
2018-01-19T08:17:44.085Z,10
2018-01-19T08:18:54.144Z,10
2018-01-19T08:20:04.192Z,10
2018-01-19T08:21:14.266Z,10
2018-01-19T08:22:24.308Z,10
2018-01-19T08:23:34.091Z,10
2018-01-19T08:24:44.118Z,10
2018-01-19T08:25:53.912Z,10
2018-01-19T08:27:03.697Z,10
2018-01-19T08:28:13.747Z,10
2018-01-19T08:29:23.591Z,10
2018-01-19T08:30:33.655Z,15
2018-01-19T08:31:43.699Z,15
2018-01-19T08:32:53.524Z,20
2018-01-19T08:34:03.611Z,25
2018-01-19T08:35:13.641Z,30
2018-01-19T08:36:23.705Z,35
2018-01-19T08:37:33.498Z,40
2018-01-19T08:38:43.673Z,40
2018-01-19T08:39:53.734Z,40
2018-01-19T08:41:03.788Z,45
2018-01-19T08:42:13.833Z,45
2018-01-19T08:43:23.895Z,45
2018-01-19T08:44:33.993Z,45
2018-01-19T08:45:44.041Z,45
2018-01-19T08:46:54.090Z,40
2018-01-19T08:48:03.631Z,35
2018-01-19T08:49:13.763Z,30
2018-01-19T08:50:23.817Z,30
2018-01-19T08:51:33.613Z,30
2018-01-19T08:52:43.389Z,25
2018-01-19T08:53:53.450Z,25
2018-01-19T08:55:03.313Z,20
2018-01-19T08:56:13.444Z,20
2018-01-19T08:57:23.277Z,20
2018-01-19T08:58:33.065Z,25
2018-01-19T08:59:42.859Z,25
2018-01-19T09:00:52.636Z,30
2018-01-19T09:02:02.743Z,30
2018-01-19T09:03:12.834Z,35
2018-01-19T09:04:22.867Z,40
2018-01-19T09:05:32.910Z,45
2018-01-19T09:06:42.965Z,40
2018-01-19T09:07:53.116Z,40
2018-01-19T09:09:03.181Z,40
2018-01-19T09:10:13.242Z,45
2018-01-19T09:11:24.334Z,50
2018-01-19T09:12:34.390Z,55
2018-01-19T09:13:44.491Z,60
2018-01-19T09:14:54.592Z,65
2018-01-19T09:16:04.647Z,70
2018-01-19T09:17:14.712Z,70
2018-01-19T09:18:24.767Z,75
2018-01-19T09:19:34.560Z,75
2018-01-19T09:20:44.621Z,75
2018-01-19T09:21:55.680Z,75
2018-01-19T09:23:05.740Z,75
2018-01-19T09:24:15.529Z,80
2018-01-19T09:25:25.580Z,80
2018-01-19T09:26:35.496Z,80
2018-01-19T09:27:45.641Z,80
2018-01-19T09:28:55.173Z,80
2018-01-19T09:30:05.287Z,80
2018-01-19T09:31:15.132Z,75
2018-01-19T09:32:25.183Z,65
2018-01-19T09:33:35.256Z,60
2018-01-19T09:34:45.048Z,60
2018-01-19T09:35:55.308Z,65
2018-01-19T09:37:05.355Z,70
2018-01-19T09:38:15.408Z,75
2018-01-19T09:39:25.182Z,85
2018-01-19T09:40:35.241Z,95
2018-01-19T09:41:45.029Z,100
2018-01-19T09:42:55.124Z,105
2018-01-19T09:44:04.923Z,105
2018-01-19T09:45:14.722Z,105
2018-01-19T09:46:24.768Z,105
2018-01-19T09:47:34.855Z,100
2018-01-19T09:48:44.663Z,95
2018-01-19T09:49:54.711Z,90
2018-01-19T09:51:04.510Z,90
2018-01-19T09:52:14.041Z,95
2018-01-19T09:53:24.086Z,95
2018-01-19T09:54:34.194Z,100
2018-01-19T09:55:43.976Z,100
2018-01-19T09:56:54.035Z,100
2018-01-19T09:58:04.102Z,105
2018-01-19T09:59:13.901Z,105
2018-01-19T10:00:23.541Z,105
2018-01-19T10:01:33.342Z,105
2018-01-19T10:02:43.431Z,105
2018-01-19T10:03:53.224Z,105
2018-01-19T10:05:03.282Z,110
2018-01-19T10:06:13.073Z,110
2018-01-19T10:07:22.872Z,110
2018-01-19T10:08:32.925Z,110
2018-01-19T10:09:42.711Z,110
2018-01-19T10:10:52.762Z,115
2018-01-19T10:12:02.899Z,120
2018-01-19T10:13:12.941Z,120
2018-01-19T10:14:23.004Z,125
2018-01-19T10:15:33.060Z,125
2018-01-19T10:16:43.104Z,130
2018-01-19T10:17:53.217Z,125
2018-01-19T10:19:02.854Z,125
2018-01-19T10:20:12.655Z,120
2018-01-19T10:21:22.441Z,120
2018-01-19T10:22:32.500Z,125
2018-01-19T10:23:42.645Z,130
2018-01-19T10:24:52.485Z,140
2018-01-19T10:26:02.284Z,145
2018-01-19T10:27:12.105Z,155
2018-01-19T10:28:22.189Z,165
2018-01-19T10:29:32.269Z,170
2018-01-19T10:30:42.331Z,180
2018-01-19T10:31:52.373Z,175
2018-01-19T10:33:02.191Z,175
2018-01-19T10:34:12.274Z,165
2018-01-19T10:35:22.919Z,160
2018-01-19T10:36:32.990Z,155
2018-01-19T10:37:43.107Z,160
2018-01-19T10:38:52.891Z,155
2018-01-19T10:40:02.954Z,170
2018-01-19T10:41:13.020Z,175
2018-01-19T10:42:23.079Z,185
2018-01-19T10:43:32.866Z,200
2018-01-19T10:44:42.960Z,195
2018-01-19T10:45:52.761Z,185
2018-01-19T10:47:02.812Z,175
2018-01-19T10:48:12.861Z,180
2018-01-19T10:49:22.706Z,170
2018-01-19T10:50:32.766Z,155
2018-01-19T10:51:42.830Z,170
2018-01-19T10:52:52.876Z,180
2018-01-19T10:54:02.920Z,185
2018-01-19T10:55:12.728Z,175
2018-01-19T10:56:22.820Z,185
2018-01-19T10:57:33.028Z,225
2018-01-19T10:58:43.083Z,240
2018-01-19T10:59:53.191Z,195
2018-01-19T11:01:02.988Z,200
2018-01-19T11:02:13.136Z,205
2018-01-19T11:03:23.221Z,235
2018-01-19T11:04:33.029Z,225
2018-01-19T11:05:44.061Z,225
2018-01-19T11:06:54.098Z,230
2018-01-19T11:08:04.150Z,210
2018-01-19T11:09:13.946Z,210
2018-01-19T11:10:24.062Z,210
2018-01-19T11:11:34.132Z,205
2018-01-19T11:12:44.180Z,225
2018-01-19T11:13:54.228Z,215
2018-01-19T11:15:04.307Z,200
2018-01-19T11:16:13.896Z,205
2018-01-19T11:17:23.957Z,190
2018-01-19T11:18:34.009Z,195
2018-01-19T11:19:44.065Z,185
2018-01-19T11:20:54.109Z,205
2018-01-19T11:22:03.902Z,215
2018-01-19T11:23:13.964Z,215
2018-01-19T11:24:24.013Z,200
2018-01-19T11:25:34.065Z,215
2018-01-19T11:26:44.124Z,215
2018-01-19T11:27:53.703Z,195
2018-01-19T11:29:03.783Z,185
2018-01-19T11:30:13.866Z,215
2018-01-19T11:31:23.909Z,205
2018-01-19T11:32:33.704Z,180
2018-01-19T11:33:43.801Z,130
2018-01-19T11:34:53.844Z,185
2018-01-19T11:36:03.915Z,210
2018-01-19T11:37:13.982Z,210
2018-01-19T11:38:24.049Z,205
2018-01-19T11:39:33.892Z,190
2018-01-19T11:40:43.973Z,210
2018-01-19T11:41:54.037Z,205
2018-01-19T11:43:03.926Z,200
2018-01-19T11:44:13.988Z,200
2018-01-19T11:45:24.094Z,200
2018-01-19T11:46:34.160Z,195
2018-01-19T11:47:48.112Z,195
2018-01-19T11:48:58.664Z,195
2018-01-19T11:50:08.717Z,195
2018-01-19T11:51:18.651Z,195
2018-01-19T11:52:28.790Z,195
2018-01-19T11:53:38.907Z,190
2018-01-19T11:54:48.978Z,190
2018-01-19T11:55:59.129Z,190
2018-01-19T11:57:09.261Z,190
2018-01-19T11:58:19.324Z,190
2018-01-19T11:59:29.121Z,190
2018-01-19T12:00:39.270Z,190
2018-01-19T12:01:49.081Z,185
2018-01-19T12:02:59.140Z,185
2018-01-19T12:04:08.934Z,185
2018-01-19T12:05:19.013Z,185
2018-01-19T12:06:29.116Z,185
2018-01-19T12:07:38.653Z,175
2018-01-19T12:08:48.528Z,185
2018-01-19T12:09:58.581Z,185
2018-01-19T12:11:08.628Z,180
2018-01-19T12:12:18.435Z,185
2018-01-19T12:13:28.481Z,185
2018-01-19T12:14:38.588Z,185
2018-01-19T12:15:48.653Z,95
2018-01-19T12:16:58.703Z,185
2018-01-19T12:18:08.494Z,185
2018-01-19T12:19:18.297Z,185
2018-01-19T12:20:28.364Z,185
2018-01-19T12:21:38.164Z,185
2018-01-19T12:22:48.306Z,185
2018-01-19T12:23:58.388Z,180
2018-01-19T12:25:08.433Z,185
2018-01-19T12:26:18.496Z,180
2018-01-19T12:27:28.327Z,175
2018-01-19T12:28:38.413Z,180
2018-01-19T12:29:48.511Z,195
2018-01-19T12:30:58.560Z,195
2018-01-19T12:32:08.386Z,190
2018-01-19T12:33:18.510Z,190
2018-01-19T12:34:28.651Z,190
2018-01-19T12:35:38.715Z,190
2018-01-19T12:36:48.805Z,190
2018-01-19T12:37:58.900Z,195
2018-01-19T12:39:09.010Z,190
2018-01-19T12:40:19.222Z,190
2018-01-19T12:41:29.348Z,190
2018-01-19T12:42:39.159Z,190
2018-01-19T12:43:49.588Z,245
2018-01-19T12:44:59.781Z,440
2018-01-19T12:46:09.661Z,510
2018-01-19T12:47:19.802Z,520
2018-01-19T12:48:29.884Z,500
2018-01-19T12:49:39.996Z,430
2018-01-19T12:50:50.123Z,485
2018-01-19T12:52:00.299Z,390
2018-01-19T12:53:10.682Z,225
2018-01-19T12:54:20.551Z,185
2018-01-19T12:55:30.669Z,185
2018-01-19T12:56:40.847Z,185
2018-01-19T12:57:50.388Z,275
2018-01-19T12:59:00.208Z,485
2018-01-19T13:00:10.286Z,410
2018-01-19T13:01:20.785Z,470
2018-01-19T13:02:30.612Z,455
2018-01-19T13:03:40.463Z,400
2018-01-19T13:04:50.556Z,360
2018-01-19T13:06:01.407Z,230
2018-01-19T13:07:11.639Z,190
2018-01-19T13:08:21.863Z,190
2018-01-19T13:09:31.978Z,200
2018-01-19T13:10:42.076Z,205
2018-01-19T13:11:52.259Z,205
2018-01-19T13:13:02.388Z,220
2018-01-19T13:14:12.524Z,220
2018-01-19T13:15:22.354Z,225
2018-01-19T13:16:32.155Z,220
2018-01-19T13:17:41.975Z,215
2018-01-19T13:18:52.108Z,200
2018-01-19T13:20:02.196Z,190
2018-01-19T13:21:12.015Z,180
2018-01-19T13:22:21.569Z,180
2018-01-19T13:23:31.624Z,175
2018-01-19T13:24:42.538Z,165
2018-01-19T13:25:52.587Z,155
2018-01-19T13:27:02.657Z,155
2018-01-19T13:28:12.471Z,140
2018-01-19T13:29:23.094Z,145
2018-01-19T13:30:34.108Z,150
2018-01-19T13:31:44.194Z,155
2018-01-19T13:32:53.980Z,155
2018-01-19T13:34:04.057Z,150
2018-01-19T13:35:14.134Z,145
2018-01-19T13:36:24.200Z,145
2018-01-19T13:37:33.729Z,145
2018-01-19T13:38:44.762Z,145
2018-01-19T13:39:54.843Z,145
2018-01-19T13:41:04.925Z,145
2018-01-19T13:42:15.049Z,110
2018-01-19T13:43:25.134Z,95
2018-01-19T13:44:35.220Z,70
2018-01-19T13:45:45.297Z,90
2018-01-19T13:46:55.378Z,60
2018-01-19T13:48:05.505Z,80
2018-01-19T13:49:15.326Z,55
2018-01-19T13:50:25.399Z,55
2018-01-19T13:51:35.483Z,55
2018-01-19T13:52:45.583Z,50
2018-01-19T13:53:55.732Z,50
2018-01-19T13:55:05.778Z,50
2018-01-19T13:56:15.878Z,50
2018-01-19T13:57:25.943Z,45
2018-01-19T13:58:35.825Z,45
2018-01-19T13:59:45.682Z,45
2018-01-19T14:00:55.244Z,45
2018-01-19T14:02:05.309Z,45
2018-01-19T14:03:15.103Z,45
2018-01-19T14:04:24.893Z,50
2018-01-19T14:05:34.822Z,50
2018-01-19T14:06:44.979Z,50
2018-01-19T14:07:54.776Z,50
2018-01-19T14:09:04.839Z,50
2018-01-19T14:10:14.637Z,90
2018-01-19T14:11:24.524Z,55
2018-01-19T14:12:34.673Z,55
2018-01-19T14:13:44.745Z,55
2018-01-19T14:14:54.800Z,50
2018-01-19T14:16:04.616Z,45
2018-01-19T14:17:14.690Z,50
2018-01-19T14:18:24.228Z,55
2018-01-19T14:19:34.310Z,85
2018-01-19T14:20:44.364Z,85
2018-01-19T14:21:54.179Z,85
2018-01-19T14:23:04.029Z,85
2018-01-19T14:24:14.087Z,85
2018-01-19T14:25:24.175Z,85
2018-01-19T14:26:33.994Z,80
2018-01-19T14:27:44.180Z,80
2018-01-19T14:28:54.260Z,80
2018-01-19T14:30:04.353Z,75
2018-01-19T14:31:14.425Z,75
2018-01-19T14:32:24.515Z,70
2018-01-19T14:33:34.591Z,70
2018-01-19T14:34:44.663Z,70
2018-01-19T14:35:54.526Z,65
2018-01-19T14:37:04.327Z,65
2018-01-19T14:38:14.134Z,60
2018-01-19T14:39:23.966Z,60
2018-01-19T14:40:34.016Z,55
2018-01-19T14:41:44.061Z,60
2018-01-19T14:42:54.133Z,50
2018-01-19T14:44:03.934Z,50
2018-01-19T14:45:13.735Z,45
2018-01-19T14:46:23.394Z,45
2018-01-19T14:47:33.527Z,40
2018-01-19T14:48:43.570Z,30
2018-01-19T14:49:53.630Z,30
2018-01-19T14:51:03.690Z,35
2018-01-19T14:52:13.770Z,35
2018-01-19T14:53:23.849Z,35
2018-01-19T14:54:33.921Z,35
2018-01-19T14:55:43.731Z,35
2018-01-19T14:56:53.958Z,30
2018-01-19T14:58:04.171Z,30
2018-01-19T14:59:14.226Z,30
2018-01-19T15:00:24.291Z,25
2018-01-19T15:01:34.094Z,25
2018-01-19T15:02:44.182Z,25
2018-01-19T15:03:54.264Z,25
2018-01-19T15:05:04.055Z,20
2018-01-19T15:06:14.118Z,20
2018-01-19T15:07:24.169Z,20
2018-01-19T15:08:34.227Z,20
2018-01-19T15:09:44.085Z,20
2018-01-19T15:10:53.895Z,20
2018-01-19T15:12:03.957Z,15
2018-01-19T15:13:14.036Z,15
2018-01-19T15:14:24.096Z,15
2018-01-19T15:15:34.202Z,15
2018-01-19T15:16:44.270Z,15
2018-01-19T15:17:54.344Z,10
2018-01-19T15:19:04.151Z,10
2018-01-19T15:20:14.232Z,10
2018-01-19T15:21:23.766Z,10
2018-01-19T15:22:33.883Z,10
2018-01-19T15:23:43.972Z,10
2018-01-19T15:24:54.039Z,5
2018-01-19T15:26:03.843Z,5
2018-01-19T15:27:13.968Z,5
2018-01-19T15:28:24.035Z,5
2018-01-19T15:29:34.090Z,5
2018-01-19T15:30:44.169Z,5
2018-01-19T15:31:54.280Z,5
2018-01-19T15:33:04.101Z,0
2018-01-19T15:34:13.879Z,0
2018-01-19T15:35:23.955Z,0
2018-01-19T15:36:34.012Z,0
2018-01-19T15:37:44.089Z,0
2018-01-19T15:38:54.197Z,0
2018-01-19T15:40:04.271Z,0
2018-01-19T15:41:14.379Z,0
2018-01-19T15:42:24.445Z,0
2018-01-19T15:43:34.504Z,0
2018-01-19T15:44:44.318Z,0
2018-01-19T15:45:54.388Z,0
2018-01-19T15:47:04.439Z,0
2018-01-19T15:48:14.265Z,0
2018-01-19T15:49:24.323Z,0
2018-01-19T15:50:34.446Z,0
2018-01-19T15:51:44.306Z,0
2018-01-19T15:52:54.400Z,0
2018-01-19T15:54:04.506Z,0
2018-01-19T15:55:14.316Z,0
2018-01-19T15:56:24.179Z,0
2018-01-19T15:57:33.445Z,0
2018-01-19T15:58:43.268Z,0
2018-01-19T15:59:53.338Z,0
2018-01-19T16:01:03.138Z,0
2018-01-19T16:02:13.223Z,0
2018-01-19T16:03:22.771Z,0
2018-01-19T16:04:32.819Z,0
2018-01-19T16:05:42.869Z,0
2018-01-19T16:06:52.951Z,0
2018-01-19T16:08:03.071Z,0
2018-01-19T16:09:12.864Z,0
2018-01-19T16:10:22.949Z,0
2018-01-19T16:11:32.772Z,0
2018-01-19T16:12:42.810Z,0
2018-01-19T16:13:52.656Z,0
2018-01-19T16:15:02.754Z,0
2018-01-19T16:16:12.556Z,0
2018-01-19T16:17:23.540Z,0
2018-01-19T16:18:33.657Z,0
2018-01-19T16:19:43.783Z,0
2018-01-19T16:20:54.516Z,0
2018-01-19T16:22:04.827Z,0
2018-01-19T16:23:15.372Z,0
2018-01-19T16:24:25.775Z,0
2018-01-19T16:25:35.863Z,0
2018-01-19T16:26:46.050Z,0
2018-01-19T16:27:55.849Z,0
2018-01-19T16:29:05.672Z,0
2018-01-19T16:30:15.757Z,0
2018-01-19T16:31:25.902Z,0
2018-01-19T16:32:35.959Z,0
2018-01-19T16:33:46.011Z,0
2018-01-19T16:34:56.143Z,0
2018-01-19T16:36:06.213Z,0
2018-01-19T16:37:16.389Z,0
2018-01-19T16:38:27.233Z,0
2018-01-19T16:39:37.291Z,0
2018-01-19T16:40:48.170Z,0
2018-01-19T16:41:58.271Z,0
2018-01-19T16:43:08.099Z,0
2018-01-19T16:44:17.971Z,0
2018-01-19T16:45:28.036Z,0
2018-01-19T16:46:38.151Z,0
2018-01-19T16:47:48.722Z,0
2018-01-19T16:48:59.581Z,0
2018-01-19T16:50:10.261Z,0
2018-01-19T16:51:20.637Z,0
2018-01-19T16:52:33.176Z,0
2018-01-19T16:53:44.038Z,0
2018-01-19T16:54:54.204Z,0
2018-01-19T16:56:04.522Z,0
2018-01-19T16:57:14.234Z,0
2018-01-19T16:58:24.193Z,0
2018-01-19T16:59:33.771Z,0
2018-01-19T17:00:43.849Z,0
2018-01-19T17:01:53.925Z,0
2018-01-19T17:03:04.017Z,0
2018-01-19T17:04:14.120Z,0
2018-01-19T17:05:24.268Z,0
2018-01-19T17:06:34.724Z,0
2018-01-19T17:07:45.045Z,0
2018-01-19T17:08:55.664Z,0
2018-01-19T17:10:05.478Z,0
2018-01-19T17:11:15.544Z,0
2018-01-19T17:12:25.745Z,0
2018-01-19T17:13:35.923Z,0
2018-01-19T17:14:46.017Z,0
2018-01-19T17:15:56.160Z,0
2018-01-19T17:17:06.240Z,0
2018-01-19T17:18:16.415Z,0
2018-01-19T17:19:26.539Z,0